Time;durP1;ratioP1;P1;durP2;ratioP2;P2;SDS_P1;SDS_P2;PMS_P1;PMS_P2;Temp;Humidity;BMP_temperature;BMP_pressure;BME280_temperature;BME280_humidity;BME280_pressure;Samples;Min_cycle;Max_cycle;Signal;HPM_P1;HPM_P2
2022/06/24 00:01:57;;;;;;;5.28;1.45;;;20.90;99.90;;;;;;5072405;28;20578;-62
2022/06/24 00:04:25;;;;;;;4.95;1.80;;;21.00;99.90;;;;;;5072337;28;20232;-62
2022/06/24 00:06:52;;;;;;;5.45;1.40;;;20.90;99.90;;;;;;5072215;28;20211;-62
2022/06/24 00:09:20;;;;;;;4.10;1.65;;;20.90;99.90;;;;;;5072442;28;20229;-62
2022/06/24 00:12:03;;;;;;;3.78;1.70;;;20.80;99.90;;;;;;5072508;28;20205;-62
2022/06/24 00:14:30;;;;;;;5.90;1.55;;;20.80;99.90;;;;;;5072559;28;20232;-62
2022/06/24 00:16:58;;;;;;;5.20;1.60;;;20.80;99.90;;;;;;5075526;28;20220;-62
2022/06/24 00:19:26;;;;;;;5.97;1.38;;;20.90;99.90;;;;;;5076514;28;20201;-62
2022/06/24 00:22:09;;;;;;;6.00;1.40;;;20.90;99.90;;;;;;5076407;28;20211;-62
2022/06/24 00:24:38;;;;;;;3.88;1.50;;;20.70;99.90;;;;;;5076137;28;20231;-61
2022/06/24 00:27:18;;;;;;;3.53;1.48;;;20.60;99.90;;;;;;5076342;28;20201;-62
2022/06/24 00:29:45;;;;;;;3.58;1.30;;;20.50;99.90;;;;;;5075983;28;20243;-61
2022/06/24 00:32:11;;;;;;;5.68;1.38;;;20.50;99.90;;;;;;5076205;28;20711;-62
2022/06/24 00:34:40;;;;;;;4.45;1.10;;;20.40;99.90;;;;;;5077328;28;20224;-62
2022/06/24 00:37:24;;;;;;;4.38;1.55;;;20.30;99.90;;;;;;5077075;28;20653;-62
2022/06/24 00:39:51;;;;;;;4.13;1.50;;;20.20;99.90;;;;;;5078103;28;20553;-62
2022/06/24 00:42:20;;;;;;;6.05;1.20;;;20.10;99.90;;;;;;5077013;28;20209;-61
2022/06/24 00:44:51;;;;;;;3.40;1.20;;;20.10;99.90;;;;;;5077738;28;20221;-62
2022/06/24 00:47:18;;;;;;;3.53;1.30;;;20.20;99.90;;;;;;5077049;28;20205;-62
2022/06/24 00:49:48;;;;;;;5.28;1.30;;;20.20;99.90;;;;;;5076671;28;20221;-60
2022/06/24 00:52:15;;;;;;;3.78;1.38;;;20.30;99.90;;;;;;5078373;28;20229;-61
2022/06/24 00:54:44;;;;;;;4.10;1.33;;;20.30;99.90;;;;;;5075833;28;20254;-61
2022/06/24 00:57:11;;;;;;;9.27;1.60;;;20.20;99.90;;;;;;5076206;28;20579;-61
2022/06/24 00:59:40;;;;;;;5.00;1.50;;;20.30;99.90;;;;;;5075904;28;20200;-61
2022/06/24 01:02:08;;;;;;;4.13;1.30;;;20.30;99.90;;;;;;5075480;28;20205;-61
2022/06/24 01:04:35;;;;;;;4.00;1.35;;;20.40;99.90;;;;;;5076077;28;20312;-61
2022/06/24 01:07:03;;;;;;;2.38;1.10;;;20.40;99.90;;;;;;5075817;28;20215;-61
2022/06/24 01:09:29;;;;;;;5.97;1.60;;;20.40;99.90;;;;;;5076129;28;20213;-62
2022/06/24 01:11:57;;;;;;;5.93;1.60;;;20.40;99.90;;;;;;5075692;28;20530;-61
2022/06/24 01:14:23;;;;;;;2.75;1.20;;;20.40;99.90;;;;;;5076330;28;20328;-62
2022/06/24 01:16:51;;;;;;;2.85;1.30;;;20.40;99.90;;;;;;5076260;28;20214;-61
2022/06/24 01:19:18;;;;;;;3.05;1.63;;;20.50;99.90;;;;;;5076035;28;20230;-61
2022/06/24 01:21:48;;;;;;;3.85;1.63;;;20.50;99.90;;;;;;5075956;28;20705;-61
2022/06/24 01:24:16;;;;;;;2.15;1.38;;;20.60;99.90;;;;;;5074969;28;20236;-61
2022/06/24 01:26:45;;;;;;;3.28;1.50;;;20.60;99.90;;;;;;5074859;28;20209;-61
2022/06/24 01:29:14;;;;;;;4.13;1.25;;;20.70;99.90;;;;;;5074957;28;20311;-61
2022/06/24 01:31:41;;;;;;;5.18;1.38;;;20.50;99.90;;;;;;5074425;28;20219;-61
2022/06/24 01:34:08;;;;;;;4.25;1.40;;;20.40;99.90;;;;;;5075399;28;20205;-61
2022/06/24 01:36:36;;;;;;;3.30;1.30;;;20.30;99.90;;;;;;5075417;28;20665;-61
2022/06/24 01:39:04;;;;;;;3.38;1.40;;;20.20;99.90;;;;;;5075097;28;20699;-61
2022/06/24 01:41:31;;;;;;;4.50;1.67;;;20.20;99.90;;;;;;5074971;28;20304;-61
2022/06/24 01:43:58;;;;;;;2.50;1.35;;;20.30;99.90;;;;;;5074865;28;20242;-61
2022/06/24 01:46:25;;;;;;;5.80;1.60;;;20.20;99.90;;;;;;5074962;28;20220;-61
2022/06/24 01:48:52;;;;;;;4.43;1.35;;;20.30;99.90;;;;;;5075080;28;20216;-61
2022/06/24 01:51:21;;;;;;;4.57;1.75;;;20.30;99.90;;;;;;5075071;28;20205;-61
2022/06/24 01:53:48;;;;;;;2.88;1.42;;;20.30;99.90;;;;;;5075423;28;20288;-61
2022/06/24 01:56:17;;;;;;;5.53;1.30;;;20.30;99.90;;;;;;5075296;28;20225;-64
2022/06/24 01:58:44;;;;;;;5.15;1.23;;;20.30;99.90;;;;;;5075880;28;20232;-61
2022/06/24 02:01:11;;;;;;;3.10;1.13;;;20.30;99.90;;;;;;5074745;28;20217;-61
2022/06/24 02:03:38;;;;;;;4.22;1.33;;;20.40;99.90;;;;;;5074691;28;20201;-61
2022/06/24 02:06:07;;;;;;;2.35;1.23;;;20.30;99.90;;;;;;5074614;28;20260;-61
2022/06/24 02:08:34;;;;;;;2.53;1.50;;;20.20;99.90;;;;;;5074500;28;20205;-61
2022/06/24 02:13:48;;;;;;;6.65;1.73;;;20.30;99.90;;;;;;5074372;28;20200;-61
2022/06/24 02:16:15;;;;;;;2.80;1.40;;;20.40;99.90;;;;;;5074472;28;20229;-61
2022/06/24 02:18:43;;;;;;;4.93;1.55;;;20.40;99.90;;;;;;5074381;28;20571;-61
2022/06/24 02:21:10;;;;;;;2.85;1.02;;;20.40;99.90;;;;;;5075729;28;20216;-61
2022/06/24 02:23:36;;;;;;;4.63;1.70;;;20.40;99.90;;;;;;5076157;28;20293;-61
2022/06/24 02:26:04;;;;;;;6.13;1.77;;;20.50;99.90;;;;;;5075986;28;20224;-61
2022/06/24 02:28:31;;;;;;;5.53;2.30;;;20.40;99.90;;;;;;5075914;28;20720;-61
2022/06/24 02:31:00;;;;;;;5.35;1.60;;;20.50;99.90;;;;;;5075912;28;20228;-61
2022/06/24 02:33:28;;;;;;;5.75;1.67;;;20.30;99.90;;;;;;5077337;28;20208;-61
2022/06/24 02:35:55;;;;;;;8.90;1.67;;;20.10;99.90;;;;;;5077409;28;20232;-61
2022/06/24 02:38:22;;;;;;;4.85;2.15;;;20.10;99.90;;;;;;5076722;28;20205;-61
2022/06/24 02:40:49;;;;;;;3.70;1.60;;;20.10;99.90;;;;;;5075134;28;20201;-61
2022/06/24 02:43:17;;;;;;;3.17;1.48;;;20.10;99.90;;;;;;5074293;28;20209;-61
2022/06/24 02:45:45;;;;;;;3.53;1.45;;;20.00;99.90;;;;;;5075606;28;20601;-61
2022/06/24 02:48:14;;;;;;;4.40;1.67;;;20.00;99.90;;;;;;5074481;28;20262;-61
2022/06/24 02:50:42;;;;;;;6.80;1.80;;;19.90;99.90;;;;;;5073038;28;20228;-61
2022/06/24 02:53:10;;;;;;;4.07;1.50;;;19.80;99.90;;;;;;5072815;28;20205;-61
2022/06/24 02:55:38;;;;;;;3.60;1.88;;;19.70;99.90;;;;;;5072568;28;20236;-61
2022/06/24 02:58:05;;;;;;;5.57;1.92;;;19.70;99.90;;;;;;5073372;28;20266;-61
2022/06/24 03:00:32;;;;;;;5.20;1.70;;;19.70;99.90;;;;;;5073477;28;20205;-61
2022/06/24 03:02:58;;;;;;;6.13;2.08;;;19.60;99.90;;;;;;5073042;28;20208;-61
2022/06/24 03:05:27;;;;;;;7.88;1.77;;;19.60;99.90;;;;;;5072953;28;20221;-61
2022/06/24 03:07:54;;;;;;;5.63;2.10;;;19.60;99.90;;;;;;5072630;28;20212;-61
2022/06/24 03:10:22;;;;;;;6.32;1.80;;;19.40;99.90;;;;;;5072216;28;20224;-61
2022/06/24 03:12:49;;;;;;;4.57;1.70;;;19.30;99.90;;;;;;5072374;28;20208;-62
2022/06/24 03:15:15;;;;;;;5.13;2.05;;;19.30;99.90;;;;;;5072185;28;20664;-61
2022/06/24 03:17:42;;;;;;;4.15;2.20;;;19.30;99.90;;;;;;5072480;28;20205;-61
2022/06/24 03:20:10;;;;;;;5.80;2.25;;;19.40;99.90;;;;;;5072288;28;20636;-61
2022/06/24 03:22:38;;;;;;;5.05;2.33;;;19.30;99.90;;;;;;5072726;28;20255;-61
2022/06/24 03:25:06;;;;;;;4.35;2.53;;;19.40;99.90;;;;;;5071995;28;20229;-61
2022/06/24 03:27:33;;;;;;;4.95;2.20;;;19.40;99.90;;;;;;5072365;28;20216;-61
2022/06/24 03:30:00;;;;;;;5.05;2.40;;;19.40;99.90;;;;;;5072889;28;20228;-61
2022/06/24 03:32:27;;;;;;;4.43;2.10;;;19.40;99.90;;;;;;5075029;28;20201;-61
2022/06/24 03:34:54;;;;;;;4.60;2.20;;;19.40;99.90;;;;;;5075255;28;20425;-61
2022/06/24 03:37:20;;;;;;;5.43;2.53;;;19.40;99.90;;;;;;5074474;28;20207;-61
2022/06/24 03:39:48;;;;;;;5.70;2.95;;;19.40;99.90;;;;;;5075131;28;20207;-61
2022/06/24 03:42:15;;;;;;;9.57;3.30;;;19.40;99.90;;;;;;5074909;28;20230;-61
2022/06/24 03:44:42;;;;;;;4.40;1.90;;;19.50;99.90;;;;;;5074160;28;20709;-62
2022/06/24 03:47:09;;;;;;;6.47;3.20;;;19.60;99.90;;;;;;5073398;28;20213;-62
2022/06/24 03:49:35;;;;;;;7.32;2.53;;;19.60;99.90;;;;;;5072794;28;20696;-61
2022/06/24 03:52:02;;;;;;;5.43;2.80;;;19.60;99.90;;;;;;5075940;28;20204;-62
2022/06/24 03:54:29;;;;;;;8.60;3.78;;;19.60;99.90;;;;;;5076766;28;20229;-61
2022/06/24 03:56:57;;;;;;;6.65;2.00;;;19.70;99.90;;;;;;5076794;28;20787;-61
2022/06/24 03:59:24;;;;;;;7.18;3.20;;;19.60;99.90;;;;;;5076561;28;20207;-61
2022/06/24 04:01:51;;;;;;;8.63;3.03;;;19.60;99.90;;;;;;5076804;28;20250;-61
2022/06/24 04:04:17;;;;;;;3.67;2.30;;;19.60;99.90;;;;;;5077695;28;20224;-61
2022/06/24 04:06:44;;;;;;;5.70;2.00;;;19.60;99.90;;;;;;5078419;28;20730;-62
2022/06/24 04:09:11;;;;;;;5.88;2.30;;;19.70;99.90;;;;;;5078151;28;20209;-62
2022/06/24 04:11:38;;;;;;;5.07;2.20;;;19.70;99.90;;;;;;5077085;28;20204;-62
2022/06/24 04:14:06;;;;;;;5.90;2.40;;;19.70;99.90;;;;;;5077149;28;20620;-62
2022/06/24 04:16:33;;;;;;;6.30;2.13;;;19.70;99.90;;;;;;5077382;28;20217;-63
2022/06/24 04:19:00;;;;;;;4.43;1.88;;;19.70;99.90;;;;;;5077076;28;20205;-63
2022/06/24 04:21:27;;;;;;;7.45;2.17;;;19.70;99.90;;;;;;5077521;28;20742;-61
2022/06/24 04:23:54;;;;;;;3.40;1.92;;;19.60;99.90;;;;;;5077337;28;20205;-59
2022/06/24 04:26:21;;;;;;;4.38;2.55;;;19.70;99.90;;;;;;5076705;28;20575;-60
2022/06/24 04:28:50;;;;;;;7.30;2.17;;;19.80;99.90;;;;;;5075828;28;20208;-60
2022/06/24 04:31:18;;;;;;;6.07;2.10;;;19.80;99.90;;;;;;5076836;28;20224;-60
2022/06/24 04:33:45;;;;;;;2.80;2.00;;;19.80;99.90;;;;;;5077255;28;20291;-59
2022/06/24 04:36:12;;;;;;;5.72;2.55;;;19.70;99.90;;;;;;5077406;28;20220;-59
2022/06/24 04:38:39;;;;;;;5.95;2.25;;;19.80;99.90;;;;;;5077111;28;20212;-60
2022/06/24 04:41:13;;;;;;;7.55;1.83;;;19.90;99.90;;;;;;5077027;28;20208;-60
2022/06/24 04:43:40;;;;;;;3.95;1.90;;;19.90;99.90;;;;;;5075612;28;20241;-59
2022/06/24 04:46:07;;;;;;;3.67;1.88;;;20.00;99.90;;;;;;5075922;28;20221;-59
2022/06/24 04:48:36;;;;;;;3.78;2.10;;;20.50;99.90;;;;;;5075558;28;20205;-59
2022/06/24 04:51:03;;;;;;;4.78;1.55;;;22.00;99.90;;;;;;5075548;28;20232;-60
2022/06/24 04:53:30;;;;;;;5.22;2.00;;;23.80;99.90;;;;;;5075205;28;20215;-59
2022/06/24 04:55:57;;;;;;;3.22;1.45;;;25.50;99.90;;;;;;5076613;28;20239;-60
2022/06/24 04:58:24;;;;;;;5.38;1.40;;;27.10;99.90;;;;;;5077427;28;20222;-59
2022/06/24 05:00:51;;;;;;;6.03;1.60;;;28.50;99.90;;;;;;5077375;28;20628;-60
2022/06/24 05:03:18;;;;;;;4.95;1.65;;;29.70;99.90;;;;;;5076372;28;20533;-61
2022/06/24 05:05:46;;;;;;;7.93;1.95;;;30.70;99.90;;;;;;5077197;28;20601;-60
2022/06/24 05:08:13;;;;;;;4.55;1.60;;;31.60;99.90;;;;;;5077060;28;20219;-61
2022/06/24 05:10:41;;;;;;;5.03;1.70;;;32.30;99.90;;;;;;5078321;28;20225;-60
2022/06/24 05:13:08;;;;;;;4.18;1.63;;;33.00;99.90;;;;;;5076855;28;20200;-61
2022/06/24 05:15:35;;;;;;;5.93;1.75;;;33.60;97.00;;;;;;5076861;28;20237;-60
2022/06/24 05:18:02;;;;;;;6.05;1.90;;;33.80;94.10;;;;;;5075852;28;20217;-60
2022/06/24 05:20:30;;;;;;;5.70;2.00;;;33.60;93.70;;;;;;5075084;28;20292;-60
2022/06/24 05:22:58;;;;;;;5.88;1.80;;;33.70;92.90;;;;;;5074798;28;20201;-61
2022/06/24 05:25:25;;;;;;;6.75;1.90;;;34.00;92.20;;;;;;5074835;28;20220;-61
2022/06/24 05:27:51;;;;;;;10.15;2.05;;;34.40;91.10;;;;;;5074821;28;20209;-60
2022/06/24 05:30:18;;;;;;;6.82;1.90;;;34.90;89.00;;;;;;5075278;28;20232;-61
2022/06/24 05:32:45;;;;;;;5.60;1.52;;;35.40;85.20;;;;;;5075507;28;20212;-60
2022/06/24 05:35:11;;;;;;;7.00;2.10;;;36.10;83.10;;;;;;5075520;28;20671;-60
2022/06/24 05:37:39;;;;;;;5.85;2.00;;;36.70;79.50;;;;;;5075035;28;20213;-60
2022/06/24 05:40:08;;;;;;;7.25;1.90;;;37.40;75.60;;;;;;5075294;28;20205;-60
2022/06/24 05:42:35;;;;;;;5.68;1.88;;;38.00;71.80;;;;;;5074960;28;20216;-60
2022/06/24 05:45:02;;;;;;;7.63;2.00;;;38.00;71.50;;;;;;5074971;28;20251;-61
2022/06/24 05:47:29;;;;;;;5.10;1.90;;;38.20;68.80;;;;;;5075863;28;20205;-59
2022/06/24 05:49:55;;;;;;;5.38;1.80;;;38.30;68.30;;;;;;5075296;28;20216;-61
2022/06/24 05:55:03;;;;;;;6.20;1.73;;;39.30;65.10;;;;;;5074794;28;20250;-60
2022/06/24 05:57:31;;;;;;;7.07;1.70;;;40.20;62.70;;;;;;5076067;28;20207;-59
2022/06/24 05:59:57;;;;;;;6.00;1.70;;;40.80;59.80;;;;;;5075250;28;20673;-59
2022/06/24 06:02:24;;;;;;;6.15;1.80;;;41.20;58.10;;;;;;5075969;28;20205;-59
2022/06/24 06:04:51;;;;;;;4.85;1.83;;;41.80;57.50;;;;;;5076073;28;20466;-60
2022/06/24 06:07:19;;;;;;;11.25;2.25;;;42.50;55.20;;;;;;5076890;28;20734;-60
2022/06/24 06:09:46;;;;;;;6.85;1.77;;;42.40;54.30;;;;;;5077575;28;20212;-59
2022/06/24 06:12:13;;;;;;;6.60;1.80;;;42.40;54.90;;;;;;5076297;28;20208;-60
2022/06/24 06:14:41;;;;;;;5.03;1.83;;;42.80;54.20;;;;;;5074498;28;20244;-59
2022/06/24 06:17:08;;;;;;;3.63;1.58;;;43.20;53.00;;;;;;5076080;28;20206;-60
2022/06/24 06:19:35;;;;;;;5.85;1.90;;;43.80;51.20;;;;;;5075885;28;20211;-61
2022/06/24 06:22:02;;;;;;;8.25;2.25;;;43.50;51.40;;;;;;5075688;28;20200;-61
2022/06/24 06:24:30;;;;;;;6.50;1.90;;;43.70;51.20;;;;;;5076359;28;20224;-64
2022/06/24 06:26:57;;;;;;;6.10;1.90;;;44.40;50.20;;;;;;5077626;28;20441;-64
2022/06/24 06:29:24;;;;;;;4.40;1.85;;;44.80;48.80;;;;;;5076116;28;20537;-66
2022/06/24 06:31:55;;;;;;;5.93;2.28;;;45.20;47.50;;;;;;5074662;28;20270;-65
2022/06/24 06:34:22;;;;;;;4.82;2.10;;;45.20;46.50;;;;;;5074757;28;20228;-65
2022/06/24 06:36:49;;;;;;;6.55;2.13;;;45.10;46.40;;;;;;5075384;28;20569;-66
2022/06/24 06:39:16;;;;;;;4.93;1.80;;;44.90;46.20;;;;;;5075494;28;20216;-65
2022/06/24 06:41:46;;;;;;;4.85;1.70;;;44.70;46.10;;;;;;5074246;28;20620;-65
2022/06/24 06:44:14;;;;;;;12.07;2.28;;;44.60;46.50;;;;;;5074955;28;20228;-65
2022/06/24 06:46:42;;;;;;;7.90;2.25;;;44.50;46.20;;;;;;5074988;28;20291;-65
2022/06/24 06:49:10;;;;;;;6.68;1.80;;;44.30;46.30;;;;;;5075136;28;20204;-65
2022/06/24 06:51:37;;;;;;;5.70;1.92;;;44.30;46.10;;;;;;5075120;28;20232;-66
2022/06/24 06:54:04;;;;;;;14.73;2.53;;;44.50;45.80;;;;;;5074412;28;20196;-65
2022/06/24 06:56:31;;;;;;;7.63;2.83;;;44.60;45.00;;;;;;5073829;28;20210;-65
2022/06/24 06:58:58;;;;;;;5.78;1.88;;;44.70;45.10;;;;;;5074190;28;20672;-65
2022/06/24 07:01:25;;;;;;;6.50;2.20;;;44.90;45.20;;;;;;5073945;28;20196;-64
2022/06/24 07:03:52;;;;;;;7.93;1.52;;;45.00;44.90;;;;;;5073520;28;20553;-62
2022/06/24 07:06:20;;;;;;;4.75;1.73;;;44.90;45.00;;;;;;5074744;28;20215;-68
2022/06/24 07:08:46;;;;;;;6.38;1.85;;;44.90;44.10;;;;;;5075655;28;20204;-64
2022/06/24 07:11:13;;;;;;;5.70;1.67;;;44.90;44.20;;;;;;5077500;28;20231;-64
2022/06/24 07:13:40;;;;;;;6.10;1.92;;;44.90;44.40;;;;;;5078946;28;20287;-67
2022/06/24 07:16:10;;;;;;;6.07;1.73;;;45.00;43.50;;;;;;5078258;28;20270;-65
2022/06/24 07:18:37;;;;;;;4.75;1.73;;;45.30;43.50;;;;;;5077376;28;20188;-66
2022/06/24 07:21:04;;;;;;;6.15;2.03;;;45.60;43.90;;;;;;5077667;28;20204;-64
2022/06/24 07:23:32;;;;;;;9.02;1.63;;;45.90;42.80;;;;;;5075359;28;20204;-66
2022/06/24 07:25:59;;;;;;;4.70;1.80;;;46.00;42.60;;;;;;5075144;28;20223;-66
2022/06/24 07:28:26;;;;;;;5.25;1.73;;;46.00;42.60;;;;;;5075062;28;20204;-64
2022/06/24 07:30:53;;;;;;;6.93;2.10;;;46.10;42.60;;;;;;5076333;28;20759;-62
2022/06/24 07:33:20;;;;;;;5.90;1.83;;;46.00;41.90;;;;;;5075903;28;20219;-64
2022/06/24 07:35:47;;;;;;;7.32;2.08;;;45.50;42.00;;;;;;5074689;28;20235;-63
2022/06/24 07:38:13;;;;;;;8.63;1.80;;;44.30;43.00;;;;;;5073024;28;20601;-63
2022/06/24 07:40:42;;;;;;;4.88;1.33;;;42.90;45.20;;;;;;5074823;28;20208;-64
2022/06/24 07:43:08;;;;;;;5.05;2.00;;;41.50;46.40;;;;;;5073837;28;20207;-63
2022/06/24 07:45:35;;;;;;;5.60;1.67;;;40.20;48.00;;;;;;5074064;28;20224;-62
2022/06/24 07:48:02;;;;;;;3.10;1.30;;;38.80;49.20;;;;;;5073077;28;20205;-62
2022/06/24 07:50:29;;;;;;;5.45;1.50;;;38.00;50.50;;;;;;5072968;28;20211;-63
2022/06/24 07:52:55;;;;;;;7.78;1.70;;;38.90;49.70;;;;;;5072729;28;20300;-64
2022/06/24 07:58:10;;;;;;;4.82;1.50;;;39.20;49.00;;;;;;5054915;28;20201;-65
2022/06/24 08:00:37;;;;;;;4.63;1.80;;;39.10;48.60;;;;;;5073968;28;20201;-64
2022/06/24 08:03:05;;;;;;;4.95;1.70;;;38.90;49.50;;;;;;5073710;28;20213;-63
2022/06/24 08:05:31;;;;;;;5.25;1.75;;;38.30;50.90;;;;;;5073039;28;20229;-63
2022/06/24 08:07:58;;;;;;;3.58;1.70;;;37.40;52.40;;;;;;5073454;28;20205;-62
2022/06/24 08:10:25;;;;;;;2.97;1.40;;;36.10;53.70;;;;;;5072219;28;20683;-64
2022/06/24 08:12:52;;;;;;;5.05;1.65;;;34.90;55.50;;;;;;5073358;28;20216;-63
2022/06/24 08:15:20;;;;;;;5.40;1.52;;;34.40;56.90;;;;;;5073452;28;20240;-62
2022/06/24 08:17:48;;;;;;;5.35;1.70;;;34.90;56.00;;;;;;5072621;28;20209;-62
2022/06/24 08:20:15;;;;;;;6.72;1.65;;;35.80;54.40;;;;;;5072435;28;20205;-62
2022/06/24 08:22:42;;;;;;;4.72;1.63;;;36.40;54.00;;;;;;5072456;28;20251;-64
2022/06/24 08:25:09;;;;;;;5.47;1.95;;;37.80;52.60;;;;;;5073455;28;20221;-63
2022/06/24 08:27:35;;;;;;;6.45;2.03;;;39.60;49.80;;;;;;5072228;28;20201;-64
2022/06/24 08:30:03;;;;;;;3.78;1.80;;;41.10;47.50;;;;;;5072953;28;20200;-63
2022/06/24 08:32:31;;;;;;;6.55;1.90;;;42.30;46.30;;;;;;5072336;28;20604;-64
2022/06/24 08:34:58;;;;;;;4.60;1.70;;;43.20;44.10;;;;;;5072059;28;20593;-63
2022/06/24 08:37:24;;;;;;;4.78;2.03;;;43.10;43.70;;;;;;5074310;28;20668;-63
2022/06/24 08:39:51;;;;;;;3.97;1.85;;;43.00;43.60;;;;;;5075851;28;20204;-63
2022/06/24 08:42:18;;;;;;;5.28;1.83;;;42.60;44.00;;;;;;5075918;28;20300;-64
2022/06/24 08:44:45;;;;;;;5.13;1.40;;;42.60;44.40;;;;;;5076507;28;20247;-63
2022/06/24 08:47:15;;;;;;;4.18;1.52;;;42.80;44.00;;;;;;5075999;28;20576;-64
2022/06/24 08:49:43;;;;;;;4.38;1.52;;;43.10;43.70;;;;;;5076352;28;20294;-64
2022/06/24 08:52:12;;;;;;;2.85;1.42;;;43.00;43.60;;;;;;5075653;28;20228;-63
2022/06/24 08:54:42;;;;;;;5.10;1.75;;;42.40;44.40;;;;;;5075524;28;20316;-64
2022/06/24 08:57:09;;;;;;;5.28;2.13;;;41.60;44.10;;;;;;5076381;28;20219;-63
2022/06/24 08:59:35;;;;;;;3.40;1.40;;;40.20;45.60;;;;;;5076313;28;20211;-63
2022/06/24 09:02:02;;;;;;;5.30;1.40;;;38.90;47.40;;;;;;5076475;28;20205;-64
2022/06/24 09:04:29;;;;;;;4.20;1.40;;;37.30;49.20;;;;;;5076687;28;20613;-62
2022/06/24 09:06:57;;;;;;;5.28;1.80;;;35.10;52.70;;;;;;5076106;28;20209;-63
2022/06/24 09:09:25;;;;;;;7.30;2.00;;;34.10;55.10;;;;;;5076227;28;20282;-63
2022/06/24 09:11:55;;;;;;;6.50;1.60;;;33.50;56.90;;;;;;5075666;28;20216;-63
2022/06/24 09:14:21;;;;;;;4.60;1.70;;;33.40;56.90;;;;;;5075819;28;20673;-62
2022/06/24 09:16:48;;;;;;;4.97;1.67;;;33.60;56.90;;;;;;5076179;28;20266;-63
2022/06/24 09:19:16;;;;;;;3.47;1.60;;;33.40;58.60;;;;;;5075958;28;20346;-64
2022/06/24 09:21:43;;;;;;;6.70;1.73;;;33.00;59.00;;;;;;5077288;28;20213;-64
2022/06/24 09:24:11;;;;;;;5.72;1.95;;;33.10;58.90;;;;;;5076525;28;20204;-63
2022/06/24 09:26:40;;;;;;;3.80;1.50;;;33.10;58.90;;;;;;5076985;28;20224;-64
2022/06/24 09:29:10;;;;;;;5.63;1.58;;;32.80;60.00;;;;;;5076962;28;20209;-65
2022/06/24 09:31:38;;;;;;;5.95;1.50;;;32.50;60.60;;;;;;5074721;28;20228;-64
2022/06/24 09:34:10;;;;;;;4.68;1.77;;;32.30;60.30;;;;;;5075005;28;20211;-64
2022/06/24 09:36:38;;;;;;;5.65;1.85;;;31.60;62.50;;;;;;5076461;28;20205;-64
2022/06/24 09:39:07;;;;;;;7.45;1.90;;;31.30;64.50;;;;;;5076234;28;20212;-64
2022/06/24 09:41:43;;;;;;;5.07;1.85;;;30.80;68.20;;;;;;5075424;28;20718;-63
2022/06/24 09:44:10;;;;;;;5.13;1.95;;;30.50;69.80;;;;;;5074779;28;20211;-63
2022/06/24 09:46:38;;;;;;;4.25;1.75;;;30.30;70.40;;;;;;5075259;28;20672;-63
2022/06/24 09:49:06;;;;;;;10.38;3.13;;;29.70;72.90;;;;;;5075802;28;20209;-64
2022/06/24 09:51:33;;;;;;;6.70;2.00;;;29.20;75.50;;;;;;5075387;28;20228;-61
2022/06/24 09:54:00;;;;;;;4.68;1.80;;;28.60;79.00;;;;;;5074957;28;20204;-66
2022/06/24 09:56:28;;;;;;;4.72;1.80;;;28.50;80.70;;;;;;5074595;28;20209;-60
2022/06/24 10:01:42;;;;;;;3.88;1.83;;;28.90;79.50;;;;;;5073828;28;20593;-60
2022/06/24 10:04:13;;;;;;;7.55;1.80;;;28.90;77.50;;;;;;5073456;28;20593;-60
2022/06/24 10:06:44;;;;;;;3.50;1.60;;;28.80;78.20;;;;;;5073961;28;20243;-60
2022/06/24 10:09:11;;;;;;;6.03;1.83;;;28.90;77.40;;;;;;5073911;28;20297;-60
2022/06/24 10:11:41;;;;;;;3.83;1.67;;;28.80;75.40;;;;;;5073937;28;20221;-60
2022/06/24 10:14:11;;;;;;;7.07;3.53;;;28.70;75.60;;;;;;5073290;28;20295;-60
2022/06/24 10:16:39;;;;;;;5.97;1.80;;;28.80;76.80;;;;;;5073511;28;20208;-60
2022/06/24 10:19:06;;;;;;;5.75;1.80;;;28.90;78.00;;;;;;5073613;28;20587;-60
2022/06/24 10:21:34;;;;;;;5.85;1.60;;;29.10;77.30;;;;;;5073411;28;20212;-60
2022/06/24 10:24:11;;;;;;;7.55;2.00;;;29.20;76.40;;;;;;5073217;28;20207;-61
2022/06/24 10:26:41;;;;;;;5.78;1.73;;;29.20;75.90;;;;;;5073573;28;20205;-60
2022/06/24 10:29:27;;;;;;;3.75;1.73;;;28.90;76.40;;;;;;5073213;28;20211;-60
2022/06/24 10:32:10;;;;;;;5.53;1.55;;;28.70;77.00;;;;;;5073153;28;20700;-60
2022/06/24 10:34:41;;;;;;;6.25;1.95;;;28.60;77.20;;;;;;5069269;28;20221;-60
2022/06/24 10:37:28;;;;;;;6.95;2.10;;;28.60;77.30;;;;;;5073285;28;20212;-60
2022/06/24 10:39:56;;;;;;;8.05;2.08;;;28.70;80.80;;;;;;5073020;28;20247;-60
2022/06/24 10:42:24;;;;;;;6.00;2.10;;;28.90;80.90;;;;;;5072761;28;20205;-60
2022/06/24 10:44:56;;;;;;;4.25;1.83;;;29.20;79.70;;;;;;5073117;28;20774;-60
2022/06/24 10:47:31;;;;;;;5.40;2.15;;;29.60;78.90;;;;;;5073210;28;20294;-61
2022/06/24 10:50:11;;;;;;;6.30;2.30;;;30.10;77.90;;;;;;5072983;28;20207;-61
2022/06/24 10:52:39;;;;;;;7.43;3.65;;;30.60;75.00;;;;;;5072894;28;20216;-61
2022/06/24 10:55:31;;;;;;;6.78;1.80;;;31.20;73.40;;;;;;5072903;28;20228;-60
2022/06/24 10:58:00;;;;;;;4.63;1.65;;;31.40;73.80;;;;;;5072969;28;20215;-60
2022/06/24 11:00:30;;;;;;;6.30;2.05;;;30.90;76.20;;;;;;5072694;28;20209;-60
2022/06/24 11:03:12;;;;;;;5.75;1.85;;;30.20;78.40;;;;;;5072847;28;20205;-60
2022/06/24 11:05:40;;;;;;;6.63;1.98;;;29.50;80.60;;;;;;5073354;28;20252;-60
2022/06/24 11:08:11;;;;;;;5.28;1.77;;;29.10;81.80;;;;;;5072836;28;20668;-61
2022/06/24 11:10:38;;;;;;;5.82;1.60;;;29.00;83.60;;;;;;5073067;28;20243;-61
2022/06/24 11:13:05;;;;;;;7.55;2.55;;;28.70;84.50;;;;;;5072923;28;20229;-61
2022/06/24 11:15:37;;;;;;;8.20;3.47;;;28.40;85.90;;;;;;5073522;28;20739;-61
2022/06/24 11:18:07;;;;;;;5.45;2.00;;;28.50;84.90;;;;;;5073227;28;20220;-61
2022/06/24 11:20:37;;;;;;;7.55;2.50;;;28.80;84.50;;;;;;5073096;28;20253;-60
2022/06/24 11:23:07;;;;;;;3.85;1.70;;;28.80;83.10;;;;;;5072344;28;20236;-60
2022/06/24 11:25:35;;;;;;;7.65;1.80;;;28.80;83.20;;;;;;5072717;28;20611;-60
2022/06/24 11:28:02;;;;;;;10.45;2.40;;;29.00;82.60;;;;;;5073230;28;20295;-60
2022/06/24 11:30:29;;;;;;;4.85;2.00;;;29.40;81.10;;;;;;5072557;28;20209;-60
2022/06/24 11:32:59;;;;;;;6.60;2.17;;;29.70;78.90;;;;;;5072508;28;20231;-60
2022/06/24 11:35:27;;;;;;;7.53;1.90;;;30.00;78.40;;;;;;5072638;28;20325;-60
2022/06/24 11:37:56;;;;;;;6.55;2.78;;;30.10;77.60;;;;;;5072452;28;20205;-59
2022/06/24 11:40:24;;;;;;;5.88;1.75;;;30.30;77.70;;;;;;5072546;28;20244;-60
2022/06/24 11:42:52;;;;;;;6.65;1.85;;;30.60;76.80;;;;;;5072088;28;20201;-60
2022/06/24 11:45:31;;;;;;;6.13;3.00;;;31.10;75.20;;;;;;5072552;28;20224;-60
2022/06/24 11:48:00;;;;;;;5.95;2.90;;;31.50;74.70;;;;;;5072006;28;20650;-61
2022/06/24 11:50:27;;;;;;;5.35;1.90;;;31.70;72.90;;;;;;5072328;28;20204;-60
2022/06/24 11:52:56;;;;;;;3.22;1.75;;;31.50;71.30;;;;;;5072611;28;20304;-60
2022/06/24 11:55:24;;;;;;;5.57;1.77;;;31.30;71.20;;;;;;5072415;28;20224;-60
2022/06/24 11:57:57;;;;;;;2.38;1.55;;;31.10;72.30;;;;;;5072518;28;20261;-61
2022/06/24 12:00:25;;;;;;;5.43;2.08;;;31.10;73.30;;;;;;5072695;28;20220;-60
2022/06/24 12:02:54;;;;;;;6.35;1.88;;;31.20;73.20;;;;;;5072102;28;20250;-62
2022/06/24 12:05:26;;;;;;;4.55;1.70;;;31.30;71.50;;;;;;5072204;28;20257;-60
2022/06/24 12:07:54;;;;;;;3.05;1.60;;;31.30;74.30;;;;;;5072452;28;20193;-59
2022/06/24 12:10:21;;;;;;;4.05;2.13;;;31.30;72.50;;;;;;5072547;28;20205;-61
2022/06/24 12:12:59;;;;;;;2.38;1.50;;;31.30;70.60;;;;;;5074726;28;20229;-60
2022/06/24 12:15:28;;;;;;;11.68;3.85;;;31.40;70.80;;;;;;5075699;28;20247;-59
2022/06/24 12:17:56;;;;;;;7.30;3.10;;;31.50;69.80;;;;;;5076065;28;20319;-60
2022/06/24 12:20:25;;;;;;;5.82;1.70;;;31.40;69.30;;;;;;5076229;28;20212;-60
2022/06/24 12:23:13;;;;;;;4.55;1.60;;;31.30;70.70;;;;;;5075610;28;20237;-60
2022/06/24 12:25:40;;;;;;;5.70;1.52;;;31.10;72.60;;;;;;5075717;28;20228;-61
2022/06/24 12:28:14;;;;;;;2.90;1.65;;;30.80;78.10;;;;;;5075599;28;20836;-62
2022/06/24 12:30:41;;;;;;;9.68;2.10;;;30.50;80.10;;;;;;5075935;28;20278;-60
2022/06/24 12:33:13;;;;;;;7.07;2.28;;;30.30;82.20;;;;;;5075480;28;20233;-60
2022/06/24 12:35:43;;;;;;;7.10;2.28;;;30.00;84.50;;;;;;5075645;28;20724;-60
2022/06/24 12:38:12;;;;;;;7.47;2.28;;;29.70;90.20;;;;;;5075946;28;20244;-60
2022/06/24 12:40:39;;;;;;;6.72;2.22;;;29.40;91.00;;;;;;5076077;28;20205;-60
2022/06/24 12:43:07;;;;;;;5.75;2.30;;;29.10;92.10;;;;;;5075509;28;20205;-59
2022/06/24 12:45:36;;;;;;;4.22;1.90;;;28.90;93.60;;;;;;5075339;28;20225;-59
2022/06/24 12:51:01;;;;;;;3.63;1.80;;;28.40;96.00;;;;;;5075707;28;20587;-59
2022/06/24 12:53:29;;;;;;;4.13;2.33;;;28.10;97.50;;;;;;5074887;28;20598;-60
2022/06/24 12:55:56;;;;;;;4.60;2.22;;;27.80;99.90;;;;;;5074790;28;20342;-60
2022/06/24 12:58:23;;;;;;;3.95;2.35;;;27.50;99.90;;;;;;5075331;28;20201;-60
2022/06/24 13:00:50;;;;;;;5.80;2.00;;;27.30;99.90;;;;;;5075185;28;20205;-59
2022/06/24 13:03:18;;;;;;;3.83;1.92;;;27.00;99.90;;;;;;5074826;28;20207;-60
2022/06/24 13:05:45;;;;;;;4.70;1.50;;;26.70;99.90;;;;;;5074793;28;20264;-59